createdAt,value
2023-03-17T00:01:21.642Z,5.00
2023-03-17T00:03:49.756Z,4.80
2023-03-17T00:06:25.097Z,4.80
2023-03-17T00:08:51.668Z,4.80
2023-03-17T00:11:18.269Z,4.70
2023-03-17T00:13:49.552Z,4.70
2023-03-17T00:16:20.706Z,4.60
2023-03-17T00:18:48.229Z,4.50
2023-03-17T00:21:16.372Z,4.40
2023-03-17T00:23:47.448Z,4.60
2023-03-17T00:26:14.232Z,4.50
2023-03-17T00:28:40.892Z,4.30
2023-03-17T00:31:17.664Z,4.30
2023-03-17T00:33:45.185Z,4.20
2023-03-17T00:36:34.455Z,4.60
2023-03-17T00:39:01.422Z,4.50
2023-03-17T00:41:29.344Z,4.50
2023-03-17T00:43:56.150Z,4.40
2023-03-17T00:46:28.455Z,4.50
2023-03-17T00:48:57.886Z,4.60
2023-03-17T00:51:24.525Z,4.80
2023-03-17T00:53:51.079Z,4.90
2023-03-17T00:56:20.930Z,4.90
2023-03-17T00:58:48.019Z,4.70
2023-03-17T01:01:18.349Z,4.70
2023-03-17T01:03:45.791Z,4.70
2023-03-17T01:06:15.773Z,4.60
2023-03-17T01:08:44.906Z,4.50
2023-03-17T01:11:16.075Z,4.60
2023-03-17T01:13:42.725Z,4.50
2023-03-17T01:16:10.302Z,4.40
2023-03-17T01:18:37.010Z,4.40
2023-03-17T01:21:06.605Z,4.20
2023-03-17T01:23:33.205Z,4.30
2023-03-17T01:26:00.005Z,4.20
2023-03-17T01:28:26.592Z,4.20
2023-03-17T01:30:53.176Z,4.40
2023-03-17T01:33:19.733Z,4.20
2023-03-17T01:35:46.368Z,4.10
2023-03-17T01:38:13.342Z,4.00
2023-03-17T01:40:46.784Z,4.00
2023-03-17T01:43:16.188Z,3.90
2023-03-17T01:46:01.400Z,4.00
2023-03-17T01:48:29.075Z,4.10
2023-03-17T01:50:58.863Z,4.20
2023-03-17T01:53:25.980Z,4.30
2023-03-17T01:55:52.712Z,4.40
2023-03-17T01:58:21.445Z,4.40
2023-03-17T02:00:50.926Z,4.40
2023-03-17T02:03:21.169Z,4.50
2023-03-17T02:05:50.587Z,4.60
2023-03-17T02:08:17.686Z,4.80
2023-03-17T02:10:45.146Z,4.70
2023-03-17T02:13:14.569Z,4.70
2023-03-17T02:15:42.426Z,4.50
2023-03-17T02:18:09.943Z,4.40
2023-03-17T02:20:36.499Z,4.30
2023-03-17T02:23:06.247Z,4.10
2023-03-17T02:25:34.393Z,4.30
2023-03-17T02:28:04.847Z,4.40
2023-03-17T02:30:33.015Z,4.40
2023-03-17T02:32:59.603Z,4.40
2023-03-17T02:35:26.991Z,4.20
2023-03-17T02:37:53.685Z,4.30
2023-03-17T02:40:23.238Z,4.50
2023-03-17T02:42:49.914Z,4.20
2023-03-17T02:45:16.993Z,4.40
2023-03-17T02:47:43.518Z,4.40
2023-03-17T02:50:17.691Z,4.40
2023-03-17T02:52:46.706Z,4.20
2023-03-17T02:55:14.140Z,4.30
2023-03-17T02:57:41.062Z,4.30
2023-03-17T03:00:10.434Z,4.20
2023-03-17T03:02:39.887Z,4.60
2023-03-17T03:05:10.455Z,4.40
2023-03-17T03:07:36.999Z,4.50
2023-03-17T03:10:04.059Z,4.20
2023-03-17T03:12:30.754Z,4.20
2023-03-17T03:14:57.345Z,4.20
2023-03-17T03:17:26.319Z,4.40
2023-03-17T03:19:52.970Z,4.30
2023-03-17T03:22:19.538Z,4.20
2023-03-17T03:24:46.094Z,4.10
2023-03-17T03:27:15.113Z,4.40
2023-03-17T03:29:41.699Z,4.30
2023-03-17T03:32:08.668Z,4.40
2023-03-17T03:34:35.279Z,4.40
2023-03-17T03:37:02.022Z,4.40
2023-03-17T03:39:28.554Z,4.30
2023-03-17T03:41:58.257Z,4.00
2023-03-17T03:44:28.265Z,4.10
2023-03-17T03:46:54.858Z,4.00
2023-03-17T03:49:22.524Z,4.20
2023-03-17T03:51:49.106Z,4.30
2023-03-17T03:54:18.047Z,4.20
2023-03-17T03:56:44.612Z,3.70
2023-03-17T03:59:11.230Z,3.90
2023-03-17T04:01:38.726Z,3.60
2023-03-17T04:04:05.393Z,3.50
2023-03-17T04:06:31.963Z,3.50
2023-03-17T04:09:00.671Z,3.60
2023-03-17T04:11:29.631Z,3.70
2023-03-17T04:13:56.338Z,3.80
2023-03-17T04:16:23.058Z,3.90
2023-03-17T04:18:49.662Z,3.80
2023-03-17T04:21:18.977Z,3.90
2023-03-17T04:23:47.799Z,4.10
2023-03-17T04:26:14.442Z,4.10
2023-03-17T04:28:41.032Z,4.10
2023-03-17T04:31:08.770Z,4.20
2023-03-17T04:33:35.356Z,4.20
2023-03-17T04:36:03.973Z,4.30
2023-03-17T04:38:33.000Z,4.30
2023-03-17T04:40:59.658Z,4.30
2023-03-17T04:43:27.066Z,4.20
2023-03-17T04:45:56.749Z,4.10
2023-03-17T04:48:23.328Z,4.10
2023-03-17T04:50:49.983Z,4.00
2023-03-17T04:53:16.549Z,4.00
2023-03-17T04:55:43.217Z,3.80
2023-03-17T04:58:18.196Z,3.90
2023-03-17T05:00:54.762Z,3.60
2023-03-17T05:03:27.319Z,3.90
2023-03-17T05:05:54.345Z,3.70
2023-03-17T05:08:25.732Z,3.60
2023-03-17T05:10:52.666Z,3.90
2023-03-17T05:13:19.232Z,3.70
2023-03-17T05:15:52.496Z,3.70
2023-03-17T05:18:19.609Z,3.30
2023-03-17T05:20:46.166Z,3.60
2023-03-17T05:23:13.024Z,3.70
2023-03-17T05:25:40.622Z,3.50
2023-03-17T05:28:09.378Z,3.40
2023-03-17T05:30:38.812Z,3.50
2023-03-17T05:33:06.011Z,3.40
2023-03-17T05:35:32.815Z,3.30
2023-03-17T05:37:59.405Z,3.30
2023-03-17T05:40:26.513Z,3.50
2023-03-17T05:42:53.136Z,3.20
2023-03-17T05:45:19.738Z,3.30
2023-03-17T05:47:46.404Z,3.20
2023-03-17T05:50:15.248Z,3.00
2023-03-17T05:52:41.950Z,2.90
2023-03-17T05:55:11.613Z,2.80
2023-03-17T05:57:38.623Z,2.80
2023-03-17T06:00:05.550Z,2.50
2023-03-17T06:02:32.467Z,2.80
2023-03-17T06:04:59.112Z,3.10
2023-03-17T06:07:25.815Z,3.30
2023-03-17T06:09:52.384Z,3.10
2023-03-17T06:12:21.416Z,3.30
2023-03-17T06:14:47.963Z,3.20
2023-03-17T06:17:14.565Z,3.40
2023-03-17T06:19:43.666Z,3.20
2023-03-17T06:22:10.304Z,3.00
2023-03-17T06:24:37.015Z,2.90
2023-03-17T06:27:04.081Z,3.20
2023-03-17T06:29:30.816Z,2.80
2023-03-17T06:32:17.076Z,3.10
2023-03-17T06:34:46.277Z,2.80
2023-03-17T06:37:12.954Z,2.70
2023-03-17T06:39:41.669Z,2.30
2023-03-17T06:42:08.366Z,2.30
2023-03-17T06:44:38.162Z,2.30
2023-03-17T06:47:04.839Z,2.30
2023-03-17T06:49:34.060Z,2.30
2023-03-17T06:52:00.740Z,2.40
2023-03-17T06:54:27.314Z,2.70
2023-03-17T06:56:58.954Z,2.80
2023-03-17T06:59:26.052Z,2.90
2023-03-17T07:01:52.770Z,2.90
2023-03-17T07:04:19.705Z,3.30
2023-03-17T07:06:46.319Z,3.30
2023-03-17T07:09:12.934Z,3.40
2023-03-17T07:11:39.552Z,3.70
2023-03-17T07:14:06.377Z,3.70
2023-03-17T07:16:33.056Z,3.60
2023-03-17T07:19:02.284Z,3.80
2023-03-17T07:21:29.030Z,3.60
2023-03-17T07:23:55.890Z,3.70
2023-03-17T07:26:22.576Z,3.60
2023-03-17T07:28:49.175Z,3.80
2023-03-17T07:31:18.316Z,3.90
2023-03-17T07:33:45.136Z,4.00
2023-03-17T07:36:11.742Z,4.10
2023-03-17T07:38:38.389Z,4.30
2023-03-17T07:41:09.611Z,4.30
2023-03-17T07:43:36.914Z,4.30
2023-03-17T07:46:06.637Z,4.50
2023-03-17T07:48:34.405Z,4.70
2023-03-17T07:51:00.960Z,4.70
2023-03-17T07:53:29.745Z,4.90
2023-03-17T07:55:58.673Z,5.20
2023-03-17T07:58:25.653Z,5.30
2023-03-17T08:00:55.023Z,5.70
2023-03-17T08:03:21.661Z,6.20
2023-03-17T08:05:51.350Z,7.90
2023-03-17T08:08:17.952Z,9.40
2023-03-17T08:25:30.099Z,8.30
2023-03-17T08:27:56.692Z,8.60
2023-03-17T08:30:23.554Z,8.80
2023-03-17T08:32:53.843Z,8.90
2023-03-17T08:35:20.854Z,8.90
2023-03-17T08:37:49.858Z,8.80
2023-03-17T08:40:17.964Z,9.10
2023-03-17T08:42:45.198Z,9.10
2023-03-17T08:45:12.695Z,9.20
2023-03-17T08:47:41.612Z,9.40
2023-03-17T08:50:10.434Z,9.60
2023-03-17T08:52:37.021Z,9.50
2023-03-17T08:55:03.683Z,9.60
2023-03-17T08:57:30.213Z,9.70
2023-03-17T08:59:56.736Z,9.70
2023-03-17T09:02:25.855Z,9.60
2023-03-17T09:04:52.785Z,9.60
2023-03-17T09:07:19.962Z,9.70
2023-03-17T09:09:46.658Z,9.80
2023-03-17T09:12:15.653Z,9.80
2023-03-17T09:14:44.133Z,10.00
2023-03-17T09:17:13.825Z,10.20
2023-03-17T09:19:40.500Z,10.20
2023-03-17T09:22:07.668Z,10.40
2023-03-17T09:24:34.387Z,10.20
2023-03-17T09:27:01.358Z,10.40
2023-03-17T09:29:28.042Z,10.60
2023-03-17T09:31:57.072Z,10.20
2023-03-17T09:34:25.204Z,9.90
2023-03-17T09:36:53.265Z,10.10
2023-03-17T09:39:22.371Z,10.00
2023-03-17T09:42:00.484Z,10.30
2023-03-17T09:44:33.160Z,10.40
2023-03-17T09:46:59.712Z,10.20
2023-03-17T09:49:37.870Z,9.90
2023-03-17T09:52:04.653Z,10.30
2023-03-17T09:54:33.253Z,10.40
2023-03-17T09:57:06.130Z,10.00
2023-03-17T09:59:34.334Z,10.40
2023-03-17T10:02:06.336Z,10.60
2023-03-17T10:04:32.961Z,10.50
2023-03-17T10:07:02.593Z,10.50
2023-03-17T10:09:29.761Z,10.80
2023-03-17T10:12:09.781Z,11.00
2023-03-17T10:14:57.833Z,10.50
2023-03-17T10:17:39.173Z,10.90
2023-03-17T10:20:13.461Z,11.10
2023-03-17T10:22:43.060Z,11.30
2023-03-17T10:25:15.033Z,11.40
2023-03-17T10:27:42.969Z,11.40
2023-03-17T10:30:14.144Z,11.50
2023-03-17T10:32:40.957Z,11.50
2023-03-17T10:35:07.760Z,11.50
2023-03-17T10:37:36.616Z,11.20
